CDT,Max TemperatureF,Mean TemperatureF,Min TemperatureF,Max Dew PointF,MeanDew PointF,Min DewpointF,Max Humidity, Mean Humidity, Min Humidity, Max Sea Level PressureIn, Mean Sea Level PressureIn, Min Sea Level PressureIn, Max VisibilityMiles, Mean VisibilityMiles, Min VisibilityMiles, Max Wind SpeedMPH, Mean Wind SpeedMPH, Max Gust SpeedMPH,PrecipitationIn, CloudCover, Events, WindDirDegrees
2013-4-1,42,33,23,21,17,14,75,54,32,30.31,30.23,30.07,10,10,10,23,14,29,0.00,2,,329
2013-4-2,47,32,16,22,18,14,84,56,28,30.38,30.34,30.30,10,10,10,20,8,25,0.00,0,,332
2013-4-3,51,35,19,19,15,11,84,53,21,30.44,30.37,30.28,10,10,9,17,6,25,0.00,0,,99
2013-4-4,63,44,25,38,25,16,79,51,23,30.27,30.14,30.03,10,10,10,15,6,18,0.00,0,,278
2013-4-5,61,45,29,31,27,22,85,56,26,30.20,30.09,29.92,10,10,10,18,10,24,0.00,1,,102
2013-4-6,68,56,44,46,39,32,76,58,39,29.89,29.71,29.58,10,10,10,30,16,39,0.00,3,,207
2013-4-7,69,50,31,43,38,30,96,67,37,29.94,29.85,29.69,10,7,0,16,8,20,0.01,1,Fog,85
2013-4-8,73,62,51,57,53,47,100,77,53,29.81,29.70,29.59,10,8,2,15,8,20,0.28,4,Rain,230
2013-4-9,79,63,47,59,55,45,93,72,50,29.81,29.75,29.70,10,9,6,24,12,30,0.02,6,Rain,100
2013-4-10,48,44,40,45,40,37,93,90,86,29.96,29.82,29.68,10,7,1,35,13,41,1.78,8,Rain-Thunderstorm,43
2013-4-11,45,41,36,41,37,29,100,88,75,29.72,29.65,29.60,10,7,1,23,10,29,0.05,8,Rain,241
2013-4-12,41,38,35,34,31,26,89,77,64,29.97,29.76,29.62,10,10,5,22,14,26,T,8,Rain,275
2013-4-13,51,41,31,37,29,22,70,58,46,30.03,29.96,29.86,10,10,10,18,10,24,T,5,Rain,267
2013-4-14,77,60,43,55,45,37,96,64,31,29.84,29.61,29.45,10,9,2,32,15,40,0.40,4,Rain,172
2013-4-15,54,47,40,51,39,33,100,78,56,30.05,29.86,29.66,10,10,10,20,8,22,0.03,6,Rain,300
2013-4-16,49,41,32,38,32,28,85,71,56,30.23,30.17,30.04,10,10,10,15,8,18,T,6,,16
2013-4-17,56,48,39,50,42,37,96,84,71,30.19,29.91,29.63,10,5,1,31,17,37,4.88,8,Rain-Thunderstorm,80
2013-4-18,55,45,35,54,43,28,100,88,75,29.72,29.59,29.45,10,6,1,30,16,39,1.01,8,Rain-Thunderstorm,301
2013-4-19,44,37,29,28,26,24,82,66,49,30.09,29.79,29.67,10,10,10,29,18,38,0.00,7,,287
2013-4-20,48,38,27,30,26,22,84,61,37,30.33,30.24,30.11,10,10,10,12,6,16,0.00,1,,6
2013-4-21,65,52,39,43,37,29,70,57,44,30.31,30.23,30.14,10,10,10,23,16,31,0.00,4,,154
2013-4-22,67,56,45,47,42,39,86,65,44,30.17,30.07,29.95,10,10,10,20,11,25,T,6,Rain,180
2013-4-23,49,41,33,47,33,27,92,78,64,30.12,30.06,29.98,10,8,2,25,18,31,0.11,8,Rain-Snow,335
2013-4-24,53,41,28,39,27,23,89,64,38,30.19,30.14,30.10,10,10,9,33,12,40,0.02,1,Rain,274
2013-4-25,59,46,32,38,32,29,82,58,33,30.31,30.23,30.14,10,10,10,18,9,24,0.00,0,,254
2013-4-26,67,58,48,47,41,34,72,57,42,30.24,30.19,30.15,10,10,10,30,15,37,0.00,4,,193
2013-4-27,60,50,39,46,44,39,100,79,57,30.24,30.12,29.99,10,10,6,15,5,21,0.00,4,,131
2013-4-28,72,54,36,51,45,37,100,71,41,29.99,29.90,29.79,10,6,0,14,7,17,0.00,0,Fog,241
2013-4-29,82,67,52,61,54,48,89,67,45,29.83,29.71,29.60,10,10,10,18,11,23,0.00,0,,184
2013-4-30,87,75,62,56,50,45,60,43,25,29.83,29.70,29.60,10,10,10,28,17,38,0.00,0,,199